Time;durP1;ratioP1;P1;durP2;ratioP2;P2;SDS_P1;SDS_P2;PMS_P1;PMS_P2;Temp;Humidity;BMP_temperature;BMP_pressure;BME280_temperature;BME280_humidity;BME280_pressure;Samples;Min_cycle;Max_cycle;Signal;HPM_P1;HPM_P2
2023/06/03 00:00:34;;;;;;;9.48;2.92;;;18.10;60.60;;;;;;5115841;28;20023;-68
2023/06/03 00:02:59;;;;;;;7.80;3.58;;;18.00;60.90;;;;;;5115500;28;20069;-69
2023/06/03 00:05:25;;;;;;;4.93;3.28;;;17.90;61.10;;;;;;5115855;28;20423;-68
2023/06/03 00:07:50;;;;;;;8.15;3.53;;;17.90;61.70;;;;;;5115097;28;20552;-69
2023/06/03 00:10:16;;;;;;;5.93;3.05;;;17.80;62.00;;;;;;5115588;28;20049;-68
2023/06/03 00:12:43;;;;;;;7.95;3.38;;;17.80;61.70;;;;;;5115400;28;20069;-69
2023/06/03 00:15:09;;;;;;;8.48;4.00;;;17.80;61.80;;;;;;5114955;28;20076;-68
2023/06/03 00:17:35;;;;;;;3.85;3.05;;;17.70;61.90;;;;;;5115536;28;20497;-68
2023/06/03 00:20:06;;;;;;;6.65;3.00;;;17.70;61.90;;;;;;5114718;28;20016;-69
2023/06/03 00:22:32;;;;;;;;;;;17.70;62.20;;;;;;5116097;28;20027;-68
2023/06/03 00:24:58;;;;;;;7.15;3.15;;;17.70;61.60;;;;;;5115235;28;20405;-69
2023/06/03 00:27:24;;;;;;;5.82;3.35;;;17.70;61.10;;;;;;5115236;28;20044;-69
2023/06/03 00:29:50;;;;;;;6.95;3.50;;;17.60;61.00;;;;;;5115543;28;20148;-69
2023/06/03 00:32:15;;;;;;;6.72;3.58;;;17.60;61.00;;;;;;5115373;28;20031;-69
2023/06/03 00:34:41;;;;;;;8.32;3.25;;;17.60;60.90;;;;;;5115195;28;20046;-69
2023/06/03 00:37:06;;;;;;;8.50;3.10;;;17.50;60.80;;;;;;5115000;28;20067;-68
2023/06/03 00:39:32;;;;;;;5.35;3.30;;;17.50;61.00;;;;;;5113869;28;20032;-68
2023/06/03 00:41:58;;;;;;;5.60;2.88;;;17.40;60.80;;;;;;5114898;28;20110;-69
2023/06/03 00:44:24;;;;;;;4.32;3.10;;;17.30;61.20;;;;;;5115137;28;20032;-68
2023/06/03 00:46:50;;;;;;;9.02;4.57;;;17.10;61.90;;;;;;5115404;28;20043;-67
2023/06/03 00:49:16;;;;;;;5.45;3.05;;;17.20;62.00;;;;;;5114400;28;20107;-69
2023/06/03 00:51:42;;;;;;;8.43;2.70;;;17.20;61.80;;;;;;5114965;27;20118;-69
2023/06/03 00:54:08;;;;;;;7.05;3.25;;;17.20;61.70;;;;;;5114283;28;20099;-69
2023/06/03 00:56:42;;;;;;;8.10;3.42;;;17.10;62.00;;;;;;5114771;28;20166;-69
2023/06/03 00:59:09;;;;;;;6.43;3.17;;;17.20;62.20;;;;;;5114582;28;20081;-69
2023/06/03 01:01:35;;;;;;;8.07;3.40;;;17.10;62.20;;;;;;5114842;28;20030;-69
2023/06/03 01:04:02;;;;;;;6.30;3.20;;;17.20;62.40;;;;;;5113974;28;20024;-69
2023/06/03 01:06:45;;;;;;;7.53;3.58;;;17.10;62.30;;;;;;5114428;28;20035;-69
2023/06/03 01:09:36;;;;;;;7.05;3.80;;;17.10;62.30;;;;;;5114541;28;20069;-68
2023/06/03 01:12:27;;;;;;;5.90;3.60;;;17.10;62.60;;;;;;5114424;28;20036;-69
2023/06/03 01:14:59;;;;;;;8.00;3.50;;;17.10;62.40;;;;;;5114802;28;20030;-69
2023/06/03 01:17:35;;;;;;;10.27;3.47;;;17.10;62.70;;;;;;5114343;28;20035;-68
2023/06/03 01:20:03;;;;;;;5.00;3.47;;;17.10;62.80;;;;;;5114777;28;20051;-69
2023/06/03 01:22:36;;;;;;;9.05;3.78;;;17.00;62.70;;;;;;5114614;28;20126;-69
2023/06/03 01:25:08;;;;;;;10.85;3.78;;;16.90;63.00;;;;;;5114166;28;20032;-68
2023/06/03 01:27:36;;;;;;;9.07;3.22;;;16.90;63.40;;;;;;5114475;28;20051;-68
2023/06/03 01:30:03;;;;;;;8.23;3.63;;;16.90;63.00;;;;;;5113777;28;20066;-68
2023/06/03 01:32:29;;;;;;;5.57;3.33;;;16.80;63.10;;;;;;5114240;28;20376;-68
2023/06/03 01:34:56;;;;;;;9.40;3.60;;;16.80;63.50;;;;;;5113836;28;20452;-68
2023/06/03 01:37:22;;;;;;;7.00;3.55;;;16.80;63.30;;;;;;5114075;28;20096;-68
2023/06/03 01:39:49;;;;;;;6.07;3.42;;;16.80;63.20;;;;;;5113668;28;20019;-68
2023/06/03 01:42:14;;;;;;;5.13;3.10;;;16.90;63.20;;;;;;5113292;28;20020;-69
2023/06/03 01:44:40;;;;;;;8.18;3.60;;;16.90;63.00;;;;;;5113947;28;20372;-68
2023/06/03 01:47:07;;;;;;;5.90;3.63;;;16.90;63.30;;;;;;5113726;28;20484;-69
2023/06/03 01:49:33;;;;;;;9.32;3.92;;;16.90;63.10;;;;;;5113843;28;20168;-68
2023/06/03 01:52:00;;;;;;;6.95;3.35;;;16.90;63.10;;;;;;5113501;28;20057;-69
2023/06/03 01:54:26;;;;;;;7.93;3.78;;;16.90;62.80;;;;;;5113696;28;20020;-69
2023/06/03 01:56:56;;;;;;;5.75;3.47;;;16.80;62.90;;;;;;5113273;27;20035;-68
2023/06/03 01:59:23;;;;;;;8.65;3.55;;;16.70;63.20;;;;;;5113218;28;20033;-69
2023/06/03 02:01:53;;;;;;;7.22;3.67;;;16.70;63.30;;;;;;5112889;28;20031;-68
2023/06/03 02:04:19;;;;;;;7.03;3.50;;;16.60;63.50;;;;;;5113504;28;20028;-69
2023/06/03 02:06:52;;;;;;;7.25;3.88;;;16.60;63.60;;;;;;5113733;28;20035;-68
2023/06/03 02:09:20;;;;;;;11.45;3.67;;;16.50;64.00;;;;;;5113286;28;20036;-69
2023/06/03 02:11:47;;;;;;;5.07;3.50;;;16.50;64.40;;;;;;5112499;28;20136;-69
2023/06/03 02:14:13;;;;;;;7.90;3.60;;;16.50;64.10;;;;;;5112996;28;20024;-69
2023/06/03 02:16:40;;;;;;;6.38;3.60;;;16.50;63.90;;;;;;5113396;28;20042;-69
2023/06/03 02:19:17;;;;;;;7.68;4.05;;;16.50;64.20;;;;;;5112350;28;20092;-69
2023/06/03 02:21:44;;;;;;;7.30;3.42;;;16.50;64.10;;;;;;5113581;27;20069;-69
2023/06/03 02:24:10;;;;;;;8.35;3.72;;;16.40;64.40;;;;;;5112906;28;20433;-69
2023/06/03 02:26:38;;;;;;;5.20;3.42;;;16.40;64.80;;;;;;5113228;28;20076;-69
2023/06/03 02:29:06;;;;;;;9.32;3.78;;;16.40;64.20;;;;;;5112866;28;20023;-69
2023/06/03 02:31:32;;;;;;;5.47;3.65;;;16.40;64.40;;;;;;5113259;28;20031;-68
2023/06/03 02:33:58;;;;;;;6.18;3.55;;;16.30;64.00;;;;;;5113385;28;20523;-68
2023/06/03 02:36:24;;;;;;;7.50;4.05;;;16.20;64.10;;;;;;5112817;28;20106;-69
2023/06/03 02:38:50;;;;;;;6.63;4.10;;;16.20;64.60;;;;;;5112823;28;20030;-69
2023/06/03 02:41:15;;;;;;;5.88;3.50;;;16.10;64.90;;;;;;5112781;28;20027;-69
2023/06/03 02:43:41;;;;;;;6.60;3.70;;;16.10;64.70;;;;;;5113154;28;20077;-69
2023/06/03 02:46:07;;;;;;;5.03;3.08;;;16.00;65.00;;;;;;5112307;28;20083;-69
2023/06/03 02:48:33;;;;;;;7.80;3.40;;;15.90;64.90;;;;;;5113195;28;20063;-69
2023/06/03 02:50:59;;;;;;;6.20;3.95;;;16.00;64.90;;;;;;5113111;28;20110;-68
2023/06/03 02:53:25;;;;;;;7.30;4.00;;;15.90;64.60;;;;;;5112954;28;20098;-68
2023/06/03 02:55:51;;;;;;;9.18;3.88;;;15.80;64.90;;;;;;5111927;28;20031;-69
2023/06/03 02:58:16;;;;;;;5.22;3.90;;;15.80;65.40;;;;;;5112323;28;20081;-69
2023/06/03 03:00:42;;;;;;;6.63;3.90;;;15.80;65.50;;;;;;5112855;28;20027;-68
2023/06/03 03:03:09;;;;;;;7.95;3.30;;;15.80;65.30;;;;;;5112581;28;20114;-69
2023/06/03 03:05:35;;;;;;;7.35;3.60;;;15.70;65.40;;;;;;5112824;28;20142;-69
2023/06/03 03:08:03;;;;;;;6.53;3.72;;;15.70;65.20;;;;;;5113200;28;20042;-69
2023/06/03 03:10:29;;;;;;;6.28;3.28;;;15.70;65.40;;;;;;5112363;28;20038;-68
2023/06/03 03:12:55;;;;;;;9.73;3.13;;;15.60;65.10;;;;;;5114888;28;20035;-68
2023/06/03 03:15:20;;;;;;;7.50;3.47;;;15.60;65.40;;;;;;5116478;28;20445;-69
2023/06/03 03:17:46;;;;;;;6.28;3.50;;;15.50;65.60;;;;;;5116790;28;20123;-67
2023/06/03 03:20:12;;;;;;;6.35;3.58;;;15.50;65.90;;;;;;5116162;28;20066;-68
2023/06/03 03:22:44;;;;;;;5.90;3.38;;;15.40;66.10;;;;;;5116869;28;20023;-67
2023/06/03 03:25:10;;;;;;;8.05;3.65;;;15.50;66.30;;;;;;5116253;28;20027;-69
2023/06/03 03:27:36;;;;;;;5.78;3.40;;;15.50;65.50;;;;;;5116857;28;20061;-69
2023/06/03 03:30:03;;;;;;;7.95;3.38;;;15.50;65.70;;;;;;5116394;28;20078;-68
2023/06/03 03:32:29;;;;;;;7.20;3.55;;;15.40;66.10;;;;;;5116418;28;20024;-68
2023/06/03 03:35:16;;;;;;;7.80;3.13;;;15.40;65.90;;;;;;5116380;28;20486;-68
2023/06/03 03:37:42;;;;;;;14.75;4.13;;;15.50;66.20;;;;;;5116419;28;20069;-69
2023/06/03 03:40:19;;;;;;;6.35;3.88;;;15.50;65.60;;;;;;5116224;28;20416;-69
2023/06/03 03:42:55;;;;;;;8.00;3.83;;;15.50;65.90;;;;;;5116819;28;20035;-68
2023/06/03 03:45:25;;;;;;;8.05;3.05;;;15.40;66.10;;;;;;5115589;27;20051;-67
2023/06/03 03:47:52;;;;;;;9.98;3.65;;;15.40;66.50;;;;;;5116162;28;20468;-69
2023/06/03 03:50:39;;;;;;;6.97;3.40;;;15.50;65.90;;;;;;5116067;28;20032;-70
2023/06/03 03:53:08;;;;;;;8.07;3.40;;;15.50;65.90;;;;;;5115988;28;20482;-74
2023/06/03 03:55:45;;;;;;;5.43;3.63;;;15.50;65.70;;;;;;5115906;28;20031;-68
2023/06/03 03:58:16;;;;;;;6.13;3.28;;;15.50;65.20;;;;;;5115990;28;20037;-69
2023/06/03 04:00:43;;;;;;;12.07;3.88;;;15.40;65.60;;;;;;5116314;28;20394;-68
2023/06/03 04:03:11;;;;;;;9.15;3.50;;;15.40;65.80;;;;;;5115765;28;20053;-69
2023/06/03 04:05:37;;;;;;;6.90;3.22;;;15.50;65.90;;;;;;5115810;28;20124;-68
2023/06/03 04:08:06;;;;;;;5.95;3.10;;;15.50;66.10;;;;;;5116380;28;20032;-68
2023/06/03 04:10:33;;;;;;;5.13;3.13;;;15.60;65.80;;;;;;5115301;28;20024;-68
2023/06/03 04:12:59;;;;;;;8.85;3.53;;;15.70;65.20;;;;;;5115721;28;20049;-69
2023/06/03 04:15:32;;;;;;;5.85;3.45;;;15.70;65.50;;;;;;5114262;28;20027;-68
2023/06/03 04:17:58;;;;;;;6.97;3.15;;;15.80;64.30;;;;;;5114636;28;20020;-68
2023/06/03 04:20:42;;;;;;;6.80;3.90;;;15.90;64.10;;;;;;5115131;28;20024;-67
2023/06/03 04:23:14;;;;;;;4.57;3.17;;;15.90;64.10;;;;;;5114901;28;20506;-71
2023/06/03 04:25:41;;;;;;;6.07;2.97;;;16.00;64.10;;;;;;5115774;28;20032;-67
2023/06/03 04:28:08;;;;;;;7.38;3.33;;;16.00;64.30;;;;;;5115666;28;20030;-68
2023/06/03 04:30:35;;;;;;;7.18;3.67;;;16.20;63.70;;;;;;5115685;28;20041;-68
2023/06/03 04:33:01;;;;;;;7.00;3.05;;;16.30;62.70;;;;;;5115831;28;20127;-68
2023/06/03 04:35:27;;;;;;;6.68;2.83;;;16.40;62.30;;;;;;5114883;28;20023;-68
2023/06/03 04:37:52;;;;;;;8.70;3.00;;;16.50;62.40;;;;;;5115227;28;20045;-68
2023/06/03 04:40:18;;;;;;;8.07;2.70;;;16.60;62.10;;;;;;5115162;28;20081;-68
2023/06/03 04:42:46;;;;;;;7.85;3.28;;;16.70;62.00;;;;;;5114226;28;20105;-68
2023/06/03 04:45:12;;;;;;;5.75;3.10;;;16.80;61.30;;;;;;5114708;28;20387;-69
2023/06/03 04:47:41;;;;;;;6.65;2.70;;;17.00;61.50;;;;;;5115283;28;20383;-67
2023/06/03 04:50:08;;;;;;;5.38;2.60;;;17.20;60.60;;;;;;5115581;28;20020;-68
2023/06/03 04:52:35;;;;;;;6.80;3.20;;;17.40;59.30;;;;;;5115034;28;20027;-67
2023/06/03 04:55:01;;;;;;;7.00;3.55;;;17.60;58.70;;;;;;5114081;28;20387;-69
2023/06/03 04:57:27;;;;;;;5.63;3.03;;;17.90;58.10;;;;;;5114911;28;20085;-68
2023/06/03 04:59:53;;;;;;;6.03;2.65;;;18.20;56.90;;;;;;5115279;28;20452;-68
2023/06/03 05:02:20;;;;;;;5.43;2.75;;;18.50;56.60;;;;;;5114782;28;20376;-68
2023/06/03 05:04:49;;;;;;;7.43;3.70;;;18.90;54.40;;;;;;5115094;28;20019;-68
2023/06/03 05:07:15;;;;;;;11.85;3.35;;;19.30;53.50;;;;;;5114430;28;20444;-70
2023/06/03 05:09:40;;;;;;;4.90;3.13;;;19.70;52.80;;;;;;5115266;28;20099;-70
2023/06/03 05:12:07;;;;;;;9.10;2.80;;;20.20;51.00;;;;;;5113922;28;20111;-69
2023/06/03 05:14:33;;;;;;;6.70;2.80;;;20.40;49.90;;;;;;5114658;28;20081;-69
2023/06/03 05:16:59;;;;;;;9.65;3.08;;;20.80;50.00;;;;;;5113635;28;20028;-69
2023/06/03 05:19:24;;;;;;;5.40;2.72;;;21.20;48.00;;;;;;5113664;28;20100;-69
2023/06/03 05:21:50;;;;;;;9.73;3.20;;;21.30;47.80;;;;;;5114389;28;20031;-70
2023/06/03 05:24:16;;;;;;;7.28;2.45;;;21.60;46.30;;;;;;5112593;28;20053;-68
2023/06/03 05:26:42;;;;;;;6.05;3.00;;;21.80;46.00;;;;;;5114472;28;20036;-68
2023/06/03 05:29:07;;;;;;;6.10;2.75;;;21.60;45.40;;;;;;5114538;28;20023;-69
2023/06/03 05:31:33;;;;;;;5.53;2.70;;;21.90;45.60;;;;;;5114254;28;20115;-69
2023/06/03 05:33:59;;;;;;;9.13;3.63;;;21.90;45.00;;;;;;5114391;28;20028;-69
2023/06/03 05:36:26;;;;;;;10.13;3.25;;;21.90;45.30;;;;;;5112915;28;20019;-70
2023/06/03 05:38:52;;;;;;;7.40;2.80;;;22.10;45.00;;;;;;5114348;28;20034;-69
2023/06/03 05:41:18;;;;;;;7.63;2.47;;;22.40;44.30;;;;;;5113865;28;20035;-69
2023/06/03 05:43:43;;;;;;;5.53;2.50;;;22.50;44.00;;;;;;5114284;28;20032;-69
2023/06/03 05:46:09;;;;;;;4.55;2.35;;;22.80;43.70;;;;;;5113786;28;20048;-69
2023/06/03 05:48:35;;;;;;;7.32;3.00;;;23.10;43.20;;;;;;5113454;28;20019;-69
2023/06/03 05:51:01;;;;;;;6.55;2.85;;;23.60;42.80;;;;;;5114224;28;20073;-69
2023/06/03 05:53:27;;;;;;;3.83;2.45;;;23.90;41.20;;;;;;5113346;28;20102;-67
2023/06/03 05:55:53;;;;;;;9.75;3.13;;;24.30;40.60;;;;;;5113946;28;20027;-68
2023/06/03 05:58:20;;;;;;;4.53;2.70;;;24.40;40.60;;;;;;5111741;28;20463;-68
2023/06/03 06:00:46;;;;;;;5.25;2.65;;;24.50;39.90;;;;;;5112659;28;20050;-69
2023/06/03 06:03:13;;;;;;;4.95;2.88;;;24.90;39.40;;;;;;5113301;28;20076;-69
2023/06/03 06:05:38;;;;;;;5.60;3.20;;;25.40;38.60;;;;;;5113510;28;20031;-69
2023/06/03 06:08:04;;;;;;;4.45;2.72;;;26.00;37.80;;;;;;5113347;28;20024;-69
2023/06/03 06:10:30;;;;;;;6.38;2.65;;;26.40;37.40;;;;;;5113266;28;20054;-69
2023/06/03 06:12:55;;;;;;;10.50;2.60;;;27.10;36.80;;;;;;5113720;28;20031;-69
2023/06/03 06:15:21;;;;;;;5.50;2.13;;;27.90;35.30;;;;;;5113305;28;20523;-69
2023/06/03 06:17:47;;;;;;;4.20;2.15;;;28.40;34.00;;;;;;5113571;28;20020;-68
2023/06/03 06:20:13;;;;;;;6.35;2.25;;;28.90;33.20;;;;;;5113580;28;20022;-68
2023/06/03 06:22:39;;;;;;;4.35;2.67;;;29.30;33.30;;;;;;5113347;28;20031;-69
2023/06/03 06:25:06;;;;;;;5.15;2.97;;;29.60;32.10;;;;;;5113481;28;20031;-69
2023/06/03 06:27:32;;;;;;;5.78;2.92;;;29.60;31.40;;;;;;5112863;28;20472;-68
2023/06/03 06:29:59;;;;;;;7.50;2.40;;;29.90;32.40;;;;;;5113385;28;20043;-68
2023/06/03 06:32:26;;;;;;;4.43;2.28;;;30.30;31.80;;;;;;5112827;28;20114;-68
2023/06/03 06:34:55;;;;;;;3.85;2.20;;;30.60;30.90;;;;;;5113285;28;20469;-68
2023/06/03 06:37:21;;;;;;;3.58;2.10;;;31.00;31.20;;;;;;5112812;28;20477;-68
2023/06/03 06:39:51;;;;;;;3.17;2.35;;;31.40;30.00;;;;;;5112869;28;20024;-71
2023/06/03 06:42:33;;;;;;;4.45;2.40;;;31.40;29.60;;;;;;5113161;28;20027;-69
2023/06/03 06:45:10;;;;;;;6.13;2.30;;;30.50;29.70;;;;;;5111597;28;20377;-67
2023/06/03 06:47:37;;;;;;;5.20;2.40;;;30.50;30.10;;;;;;5112384;28;20031;-68
2023/06/03 06:50:08;;;;;;;3.67;2.35;;;30.50;29.60;;;;;;5113095;28;20038;-68
2023/06/03 06:52:35;;;;;;;4.60;2.25;;;30.70;29.60;;;;;;5112704;28;20058;-68
2023/06/03 06:55:01;;;;;;;4.75;2.40;;;30.80;29.70;;;;;;5113072;28;20031;-68
2023/06/03 06:57:30;;;;;;;7.80;2.50;;;31.00;29.60;;;;;;5112560;28;20028;-69
2023/06/03 06:59:56;;;;;;;6.25;2.03;;;30.90;29.20;;;;;;5113205;28;20114;-69
2023/06/03 07:02:22;;;;;;;4.38;2.35;;;30.40;30.00;;;;;;5112982;28;20494;-67
2023/06/03 07:04:51;;;;;;;5.95;2.50;;;30.50;29.60;;;;;;5113029;28;20115;-68
2023/06/03 07:07:17;;;;;;;4.18;2.10;;;30.40;29.70;;;;;;5112537;28;20084;-68
2023/06/03 07:09:44;;;;;;;3.90;2.28;;;30.60;29.80;;;;;;5112103;28;20031;-67
2023/06/03 07:12:10;;;;;;;4.63;2.10;;;30.70;29.20;;;;;;5112588;28;20030;-67
2023/06/03 07:14:35;;;;;;;2.83;2.05;;;30.60;29.20;;;;;;5112681;28;20020;-69
2023/06/03 07:17:01;;;;;;;5.20;2.25;;;30.60;29.50;;;;;;5112874;28;20036;-68
2023/06/03 07:19:37;;;;;;;7.38;2.00;;;30.40;29.40;;;;;;5112789;28;20097;-69
2023/06/03 07:22:05;;;;;;;6.28;2.38;;;30.30;29.30;;;;;;5112908;28;20041;-68
2023/06/03 07:24:41;;;;;;;6.93;2.03;;;30.40;29.30;;;;;;5112434;28;20035;-68
2023/06/03 07:27:10;;;;;;;4.40;2.20;;;30.10;29.40;;;;;;5112410;28;20567;-68
2023/06/03 07:29:38;;;;;;;2.50;1.70;;;30.40;28.90;;;;;;5112458;28;20456;-67
2023/06/03 07:32:07;;;;;;;3.80;2.03;;;30.00;29.20;;;;;;5112638;28;20444;-67
2023/06/03 07:34:33;;;;;;;7.15;1.92;;;29.90;29.90;;;;;;5112186;28;20102;-67
2023/06/03 07:37:02;;;;;;;3.17;2.00;;;30.20;29.40;;;;;;5111291;28;20059;-68
2023/06/03 07:39:28;;;;;;;6.93;2.22;;;30.20;28.90;;;;;;5112175;28;20110;-68
2023/06/03 07:41:54;;;;;;;4.45;1.98;;;30.20;29.00;;;;;;5111351;28;20448;-68
2023/06/03 07:44:31;;;;;;;5.90;2.20;;;30.20;28.70;;;;;;5112338;28;20027;-67
2023/06/03 07:46:57;;;;;;;4.35;1.92;;;30.00;28.80;;;;;;5110997;28;20131;-67
2023/06/03 07:49:24;;;;;;;7.05;2.00;;;30.10;28.90;;;;;;5110981;28;20396;-70
2023/06/03 07:51:51;;;;;;;4.85;1.90;;;30.50;28.10;;;;;;5112655;28;20023;-68
2023/06/03 07:54:18;;;;;;;3.58;1.65;;;30.30;28.00;;;;;;5112178;28;20032;-67
2023/06/03 07:56:45;;;;;;;6.72;2.05;;;30.10;27.80;;;;;;5111970;28;20401;-67
2023/06/03 07:59:15;;;;;;;5.95;1.70;;;29.80;27.90;;;;;;5114091;28;20384;-67
2023/06/03 08:01:42;;;;;;;3.22;1.90;;;29.30;28.00;;;;;;5115762;28;20024;-67
2023/06/03 08:04:20;;;;;;;3.47;1.70;;;29.20;28.30;;;;;;5116031;27;20483;-67
2023/06/03 08:06:47;;;;;;;3.45;1.73;;;29.40;28.10;;;;;;5115550;28;20057;-67
2023/06/03 08:09:40;;;;;;;5.28;1.75;;;29.50;28.20;;;;;;5115470;28;20011;-67
2023/06/03 08:12:08;;;;;;;5.10;1.65;;;29.10;27.60;;;;;;5110980;28;20088;-67
2023/06/03 08:14:36;;;;;;;3.53;1.75;;;29.10;27.60;;;;;;5115769;28;20020;-68
2023/06/03 08:17:13;;;;;;;6.10;1.80;;;29.10;27.90;;;;;;5115869;28;20035;-69
2023/06/03 08:19:43;;;;;;;2.80;1.90;;;29.10;28.10;;;;;;5115350;28;20020;-67
2023/06/03 08:22:39;;;;;;;5.07;1.70;;;29.00;27.80;;;;;;5114428;28;20024;-69
2023/06/03 08:25:05;;;;;;;4.75;1.70;;;28.80;27.50;;;;;;5115675;28;20031;-68
2023/06/03 08:27:32;;;;;;;2.78;1.75;;;28.40;27.40;;;;;;5115110;28;20081;-68
2023/06/03 08:29:57;;;;;;;2.88;1.90;;;27.90;28.00;;;;;;5115585;28;20069;-69
2023/06/03 08:32:23;;;;;;;2.85;1.50;;;27.70;28.60;;;;;;5114486;28;20024;-70
2023/06/03 08:34:49;;;;;;;3.58;1.60;;;27.30;29.20;;;;;;5115426;28;20031;-69
2023/06/03 08:37:15;;;;;;;7.53;1.90;;;26.80;29.20;;;;;;5115400;28;20088;-69
2023/06/03 08:39:41;;;;;;;3.47;1.65;;;26.60;29.40;;;;;;5114759;28;20068;-68
2023/06/03 08:42:09;;;;;;;4.10;2.15;;;26.20;29.10;;;;;;5115421;28;20023;-68
2023/06/03 08:45:04;;;;;;;7.65;1.98;;;25.90;29.70;;;;;;5114790;28;20049;-68
2023/06/03 08:47:58;;;;;;;10.13;1.92;;;25.70;30.30;;;;;;5109443;27;20055;-70
2023/06/03 08:50:26;;;;;;;8.63;1.85;;;25.40;30.00;;;;;;5115251;28;20024;-69
2023/06/03 08:52:53;;;;;;;7.40;1.80;;;25.20;30.70;;;;;;5114992;28;20038;-68
2023/06/03 08:55:19;;;;;;;4.60;1.80;;;25.30;31.10;;;;;;5115322;28;20368;-69
2023/06/03 08:57:51;;;;;;;5.07;1.77;;;25.40;30.80;;;;;;5114658;28;20059;-67
2023/06/03 09:00:24;;;;;;;6.18;1.80;;;25.30;30.10;;;;;;5114978;28;20027;-68
2023/06/03 09:02:53;;;;;;;6.10;1.85;;;25.00;31.20;;;;;;5114149;28;20345;-69
2023/06/03 09:05:22;;;;;;;5.65;2.05;;;24.90;30.70;;;;;;5114849;28;20028;-68
2023/06/03 09:07:50;;;;;;;6.00;2.40;;;24.70;31.20;;;;;;5114452;28;20098;-70
2023/06/03 09:10:22;;;;;;;12.45;2.40;;;24.60;31.80;;;;;;5114726;28;20027;-68
2023/06/03 09:12:48;;;;;;;7.43;1.90;;;24.40;32.20;;;;;;5113195;28;20368;-68
2023/06/03 09:15:15;;;;;;;6.20;1.77;;;24.20;32.20;;;;;;5114725;28;20085;-68
2023/06/03 09:17:42;;;;;;;2.97;1.73;;;24.00;32.40;;;;;;5114241;28;20054;-68
2023/06/03 09:20:09;;;;;;;5.13;2.33;;;23.80;32.30;;;;;;5114636;28;20111;-67
2023/06/03 09:22:36;;;;;;;4.07;1.80;;;23.80;33.50;;;;;;5114453;28;20117;-70
2023/06/03 09:25:02;;;;;;;4.88;2.28;;;23.90;34.70;;;;;;5114527;28;20028;-69
2023/06/03 09:27:28;;;;;;;6.03;1.88;;;24.00;34.00;;;;;;5114176;28;20392;-68
2023/06/03 09:29:54;;;;;;;3.65;1.70;;;23.80;33.50;;;;;;5113941;28;20024;-67
2023/06/03 09:32:20;;;;;;;6.03;1.83;;;23.80;33.70;;;;;;5114588;28;20159;-70
2023/06/03 09:34:46;;;;;;;7.05;2.10;;;23.90;34.80;;;;;;5113661;28;20027;-68
2023/06/03 09:37:12;;;;;;;6.28;2.08;;;24.00;34.60;;;;;;5114240;28;20100;-67
2023/06/03 09:39:38;;;;;;;3.08;1.80;;;24.00;33.50;;;;;;5113867;28;20024;-68
2023/06/03 09:42:05;;;;;;;7.75;2.17;;;24.10;34.40;;;;;;5114071;28;20039;-69
2023/06/03 09:44:55;;;;;;;4.57;1.70;;;24.10;34.20;;;;;;5112927;28;20023;-69
2023/06/03 09:47:21;;;;;;;7.22;2.38;;;24.10;34.80;;;;;;5114217;28;20047;-69
2023/06/03 09:50:06;;;;;;;3.38;2.13;;;24.00;33.90;;;;;;5113633;28;20020;-68
2023/06/03 09:52:32;;;;;;;5.40;1.67;;;23.80;34.10;;;;;;5113949;28;20027;-69
2023/06/03 09:55:06;;;;;;;11.32;2.00;;;23.80;33.70;;;;;;5112510;28;20114;-69
2023/06/03 09:57:33;;;;;;;5.50;1.85;;;23.70;34.10;;;;;;5113202;28;20457;-73
2023/06/03 10:00:07;;;;;;;4.43;1.90;;;23.70;34.50;;;;;;5114067;28;20153;-69
2023/06/03 10:02:45;;;;;;;6.80;2.30;;;23.70;33.80;;;;;;5113282;28;20078;-70
2023/06/03 10:05:27;;;;;;;3.90;2.40;;;23.70;33.70;;;;;;5113519;28;20024;-69
2023/06/03 10:07:53;;;;;;;6.75;2.25;;;23.60;34.10;;;;;;5092707;28;20139;-69
2023/06/03 10:10:20;;;;;;;4.20;2.03;;;23.50;33.90;;;;;;5093175;28;20031;-69
2023/06/03 10:12:47;;;;;;;5.07;2.10;;;23.40;34.20;;;;;;5093184;28;20031;-68
2023/06/03 10:15:13;;;;;;;3.60;2.00;;;23.50;33.80;;;;;;5093230;28;20043;-68
2023/06/03 10:17:47;;;;;;;6.25;2.10;;;23.40;34.10;;;;;;5091189;28;20452;-69
2023/06/03 10:20:36;;;;;;;4.63;2.42;;;23.40;33.60;;;;;;5093292;28;20030;-69
2023/06/03 10:23:04;;;;;;;2.55;1.70;;;23.40;34.10;;;;;;5092821;28;20094;-68
2023/06/03 10:25:33;;;;;;;2.35;1.77;;;23.50;34.00;;;;;;5093138;28;20020;-69
2023/06/03 10:28:00;;;;;;;3.60;2.08;;;23.50;33.90;;;;;;5092989;28;20109;-69
2023/06/03 10:30:27;;;;;;;11.70;2.35;;;23.50;33.40;;;;;;5093291;28;20399;-68
2023/06/03 10:32:55;;;;;;;9.80;2.53;;;23.50;32.50;;;;;;5091328;28;20039;-69
2023/06/03 10:35:22;;;;;;;2.70;2.10;;;23.40;33.50;;;;;;5092985;28;20372;-70
2023/06/03 10:37:49;;;;;;;3.85;2.00;;;23.40;33.80;;;;;;5092516;28;20024;-67
2023/06/03 10:40:15;;;;;;;6.15;2.05;;;23.50;34.90;;;;;;5092929;28;20027;-69
2023/06/03 10:42:43;;;;;;;9.52;2.00;;;23.50;33.40;;;;;;5092406;28;20044;-69
2023/06/03 10:45:11;;;;;;;5.75;2.35;;;23.40;33.30;;;;;;5092419;28;20073;-69
2023/06/03 10:47:39;;;;;;;6.70;1.92;;;23.30;32.50;;;;;;5092518;28;20028;-70
2023/06/03 10:50:16;;;;;;;5.05;2.10;;;23.10;32.40;;;;;;5092909;28;20111;-69
2023/06/03 10:53:02;;;;;;;4.38;1.88;;;23.20;33.10;;;;;;5092650;28;20067;-68
2023/06/03 10:55:42;;;;;;;4.13;1.92;;;23.20;33.50;;;;;;5101025;28;20026;-68
2023/06/03 10:58:28;;;;;;;5.90;1.95;;;23.20;33.30;;;;;;5113300;28;20027;-69
2023/06/03 11:01:05;;;;;;;3.92;1.80;;;23.30;33.30;;;;;;5112813;28;20028;-69
2023/06/03 11:03:59;;;;;;;3.35;2.03;;;23.40;33.20;;;;;;5113447;28;20102;-69
2023/06/03 11:06:28;;;;;;;5.28;2.10;;;23.50;33.70;;;;;;5113186;28;20333;-68
2023/06/03 11:09:02;;;;;;;4.63;1.75;;;23.40;32.70;;;;;;5113302;28;20456;-67
2023/06/03 11:11:52;;;;;;;4.47;1.80;;;23.30;32.10;;;;;;5112061;28;20536;-68
2023/06/03 11:14:30;;;;;;;4.43;1.92;;;23.40;33.60;;;;;;5113046;28;20023;-69
2023/06/03 11:16:58;;;;;;;5.60;2.20;;;23.60;35.00;;;;;;5112472;28;20028;-71
2023/06/03 11:19:31;;;;;;;3.92;2.10;;;23.70;34.70;;;;;;5111331;28;20031;-68
2023/06/03 11:22:00;;;;;;;4.28;1.92;;;23.70;34.10;;;;;;5112439;28;20069;-68
2023/06/03 11:24:37;;;;;;;6.05;2.10;;;23.80;33.70;;;;;;5111585;28;20027;-70
2023/06/03 11:27:24;;;;;;;5.80;1.90;;;23.90;33.90;;;;;;5112750;28;20038;-69
2023/06/03 11:29:53;;;;;;;3.58;1.90;;;24.10;35.00;;;;;;5111295;28;20024;-68
2023/06/03 11:32:28;;;;;;;2.92;2.03;;;24.10;34.60;;;;;;5112566;28;20098;-68
2023/06/03 11:35:02;;;;;;;5.85;2.10;;;24.10;33.80;;;;;;5115272;28;20383;-70
2023/06/03 11:37:40;;;;;;;7.07;1.88;;;24.10;32.70;;;;;;5116633;28;20031;-70
2023/06/03 11:40:07;;;;;;;8.45;2.13;;;24.10;33.20;;;;;;5116651;27;20042;-69
2023/06/03 11:42:47;;;;;;;4.30;1.80;;;24.10;33.70;;;;;;5116709;28;20114;-69
2023/06/03 11:45:24;;;;;;;3.50;1.80;;;24.10;32.20;;;;;;5116012;28;20089;-67
2023/06/03 11:47:52;;;;;;;4.97;2.10;;;23.90;32.40;;;;;;5114662;28;20031;-70
2023/06/03 11:50:18;;;;;;;4.88;1.90;;;23.70;33.20;;;;;;5116712;28;20437;-70
2023/06/03 11:52:44;;;;;;;4.47;1.92;;;23.60;33.60;;;;;;5115596;28;20039;-70
2023/06/03 11:55:11;;;;;;;2.53;1.67;;;23.60;34.30;;;;;;5116295;28;20051;-69
2023/06/03 11:57:39;;;;;;;4.30;1.70;;;23.60;34.60;;;;;;5114999;28;20449;-68
2023/06/03 12:00:09;;;;;;;5.60;2.17;;;23.70;33.00;;;;;;5115777;28;20028;-68
2023/06/03 12:02:42;;;;;;;4.37;1.90;;;23.50;33.30;;;;;;5116224;28;20380;-69
2023/06/03 12:05:08;;;;;;;3.85;2.13;;;23.40;33.30;;;;;;5116204;28;20019;-68
2023/06/03 12:07:34;;;;;;;4.15;1.80;;;23.40;33.00;;;;;;5114813;28;20031;-68
2023/06/03 12:10:00;;;;;;;4.97;1.98;;;23.40;32.30;;;;;;5115265;27;20020;-68
2023/06/03 12:12:26;;;;;;;4.90;1.98;;;23.20;32.40;;;;;;5116018;28;20031;-69
2023/06/03 12:14:52;;;;;;;4.90;1.77;;;23.10;33.20;;;;;;5114368;28;20100;-69
2023/06/03 12:17:19;;;;;;;2.75;1.77;;;23.20;33.60;;;;;;5115802;28;20073;-68
2023/06/03 12:19:50;;;;;;;2.22;1.58;;;23.20;33.20;;;;;;5115565;28;20352;-70
2023/06/03 12:22:27;;;;;;;5.53;2.20;;;23.20;33.60;;;;;;5115833;28;20107;-70
2023/06/03 12:24:52;;;;;;;3.45;1.80;;;23.20;33.20;;;;;;5115423;28;20360;-69
2023/06/03 12:27:24;;;;;;;5.00;1.90;;;23.10;33.20;;;;;;5115711;28;20057;-68
2023/06/03 12:29:55;;;;;;;5.95;2.10;;;23.00;33.60;;;;;;5115251;28;20024;-69
2023/06/03 12:32:25;;;;;;;4.70;1.77;;;22.90;33.70;;;;;;5115895;28;20426;-69
2023/06/03 12:34:51;;;;;;;3.50;1.80;;;22.90;32.80;;;;;;5115191;28;20035;-70
2023/06/03 12:37:30;;;;;;;4.32;1.95;;;22.90;34.20;;;;;;5115517;28;20043;-70
2023/06/03 12:39:57;;;;;;;3.90;1.88;;;23.00;33.90;;;;;;5115144;28;20093;-69
2023/06/03 12:42:36;;;;;;;4.20;2.03;;;22.90;33.60;;;;;;5115383;28;20024;-68
2023/06/03 12:45:02;;;;;;;6.40;1.67;;;22.90;33.90;;;;;;5114322;28;20027;-68
2023/06/03 12:47:29;;;;;;;4.35;1.88;;;22.90;34.00;;;;;;5113934;28;20036;-69
2023/06/03 12:50:06;;;;;;;2.80;1.60;;;22.90;33.90;;;;;;5114996;28;20098;-69
2023/06/03 12:52:34;;;;;;;3.70;2.05;;;22.90;34.20;;;;;;5115115;28;20028;-68
2023/06/03 12:55:01;;;;;;;4.00;2.35;;;22.90;33.90;;;;;;5114532;28;20024;-69